Wittman Regional Airport
KOSH : now visible

Aeroporto :











RITROVATECI SU...

 
LOGIN :

Iscrizione | Disclaimer

   EN    FR    IT 

 









Sommario :    VFR   VFR Marginale   IFR   IFR Intensivo   IFR Molto Intensivo
Visibilità : 
Base nubi : 
>= 8 km
>= 3000ft
5 / 8 km
1000 / 3000 ft
1500m / 5 km
500 / 1000 ft
800 / 1500m
200 / 500 ft
< 800m
< 200 ft
Simboli :   Temporali  Nebbia  Neve Forte  Precipitazioni Forti  Vento > 20 kt






- Altitudine del aeroporto : 808 ft
- Codice IATA : OSH


KOSH - Wittman Regional

ULTIMO METAR :
  • 040253Z 30012G19KT 10SM BKN010 OVC049 06/03 A3000 RMK AO2 RAB06E17 SLP163 P0000 60000 T00560033 51016

METARs OBSOLETI :
  • 040231Z 29011KT 10SM FEW009 OVC050 07/04 A3000 RMK AO2 RAB06E17 P0000 T00670044
  • 040153Z 27014KT 10SM FEW043 OVC055 08/05 A2998 RMK AO2 RAB06E18B39E50 SLP156 P0000 T00830050
  • 040053Z 15007KT 10SM OVC050 12/05 A2995 RMK AO2 SLP145 T01220050

Previsioni scadute.



MetMap, La meteo Aeronautica in un colpo d'occhio ! - Copyright ORBIFLY Dicembre 2007 - Disclaimer

ORBIFLY MET'MAP TEAM :

Programmazione e sviluppo : Alexandra Zaïnal
Concezione : Baudouin d'Aumeries
Aiuto per la programmazione : Marc-Olivier Méhu
Supporto tecnico e logistico : Manuel Goepfert
Aiuto per la traduzione : Arnaldo La Scala

Contatto : metmap@orbifly.com




FONTI E CREDITI :

   NOAA       Earth
Advisory